Time;durP1;ratioP1;P1;durP2;ratioP2;P2;SDS_P1;SDS_P2;PMS_P1;PMS_P2;Temp;Humidity;BMP_temperature;BMP_pressure;BME280_temperature;BME280_humidity;BME280_pressure;Samples;Min_cycle;Max_cycle;Signal;HPM_P1;HPM_P2
2022/03/24 00:02:07;;;;;;;;;9.25;7.25;;;;;;;;5033433;28;51224;-58
2022/03/24 00:04:52;;;;;;;;;17.50;7.50;;;;;;;;5019337;28;51310;-58
2022/03/24 00:08:02;;;;;;;;;10.25;8.00;;;;;;;;5037849;28;51495;-58
2022/03/24 00:10:46;;;;;;;;;11.75;7.25;;;;;;;;5036082;28;51089;-58
2022/03/24 00:13:41;;;;;;;;;8.75;6.75;;;;;;;;5036301;28;51247;-57
2022/03/24 00:16:26;;;;;;;;;12.75;6.25;;;;;;;;5036513;28;51298;-58
2022/03/24 00:19:12;;;;;;;;;11.75;7.50;;;;;;;;5035772;28;51217;-59
2022/03/24 00:21:58;;;;;;;;;15.25;8.75;;;;;;;;5035622;28;51145;-58
2022/03/24 00:24:42;;;;;;;;;10.00;6.25;;;;;;;;5039080;28;51316;-57
2022/03/24 00:27:28;;;;;;;;;10.75;7.75;;;;;;;;5033053;28;51117;-55
2022/03/24 00:30:20;;;;;;;;;6.75;6.00;;;;;;;;5036491;28;51175;-58
2022/03/24 00:33:05;;;;;;;;;13.00;7.50;;;;;;;;5038171;28;51345;-58
2022/03/24 00:35:50;;;;;;;;;9.25;6.00;;;;;;;;5039621;28;51184;-58
2022/03/24 00:38:36;;;;;;;;;10.75;7.00;;;;;;;;5038431;28;51015;-56
2022/03/24 00:41:26;;;;;;;;;13.75;10.00;;;;;;;;5038284;28;51456;-58
2022/03/24 00:44:24;;;;;;;;;14.50;9.50;;;;;;;;5036647;28;51216;-58
2022/03/24 00:47:10;;;;;;;;;10.00;8.50;;;;;;;;5037039;28;51562;-58
2022/03/24 00:49:55;;;;;;;;;14.00;7.75;;;;;;;;5039479;28;51014;-59
2022/03/24 00:52:44;;;;;;;;;13.00;6.75;;;;;;;;5032487;28;53748;-58
2022/03/24 00:55:30;;;;;;;;;11.00;7.00;;;;;;;;5036533;28;51101;-58
2022/03/24 00:58:16;;;;;;;;;12.75;7.25;;;;;;;;5034584;28;51196;-56
2022/03/24 01:01:01;;;;;;;;;14.50;7.75;;;;;;;;5031406;28;51062;-58
2022/03/24 01:03:56;;;;;;;;;10.25;6.75;;;;;;;;5035633;28;51046;-58
2022/03/24 01:06:41;;;;;;;;;12.25;8.00;;;;;;;;5038515;28;51104;-58
2022/03/24 01:09:28;;;;;;;;;9.75;6.50;;;;;;;;5030742;28;51191;-58
2022/03/24 01:12:16;;;;;;;;;15.25;6.25;;;;;;;;5038157;28;51540;-56
2022/03/24 01:15:05;;;;;;;;;12.25;6.50;;;;;;;;5038820;28;51235;-57
2022/03/24 01:17:50;;;;;;;;;12.00;7.75;;;;;;;;5032625;28;51059;-58
2022/03/24 01:20:35;;;;;;;;;8.00;7.25;;;;;;;;5033196;28;51062;-58
2022/03/24 01:23:23;;;;;;;;;13.75;8.00;;;;;;;;5040832;28;51538;-58
2022/03/24 01:26:09;;;;;;;;;7.50;6.50;;;;;;;;5038322;28;51277;-57
2022/03/24 01:28:58;;;;;;;;;13.25;8.75;;;;;;;;5039178;28;51107;-59
2022/03/24 01:31:44;;;;;;;;;9.00;7.00;;;;;;;;5038234;28;51172;-58
2022/03/24 01:34:38;;;;;;;;;12.00;9.50;;;;;;;;5038512;28;51091;-57
2022/03/24 01:37:28;;;;;;;;;12.00;7.00;;;;;;;;5038431;28;51144;-58
2022/03/24 01:40:13;;;;;;;;;14.75;6.75;;;;;;;;5038988;28;51047;-58
2022/03/24 01:43:00;;;;;;;;;12.00;6.50;;;;;;;;5038341;28;51117;-59
2022/03/24 01:45:46;;;;;;;;;6.50;5.25;;;;;;;;5042016;28;51651;-56
2022/03/24 01:48:30;;;;;;;;;9.00;6.75;;;;;;;;5027395;28;51587;-57
2022/03/24 01:51:16;;;;;;;;;9.00;7.25;;;;;;;;5036966;28;51161;-57
2022/03/24 01:54:01;;;;;;;;;8.50;7.00;;;;;;;;5036565;28;51140;-53
2022/03/24 01:56:46;;;;;;;;;10.50;6.25;;;;;;;;5042062;28;51077;-58
2022/03/24 01:59:37;;;;;;;;;12.75;7.50;;;;;;;;5038463;28;51118;-57
2022/03/24 02:02:31;;;;;;;;;11.25;8.00;;;;;;;;5034817;28;51495;-59
2022/03/24 02:05:18;;;;;;;;;12.75;6.50;;;;;;;;5037711;28;51231;-58
2022/03/24 02:08:04;;;;;;;;;10.50;7.00;;;;;;;;5034716;28;51149;-58
2022/03/24 02:10:58;;;;;;;;;15.75;10.00;;;;;;;;5019929;28;51076;-59
2022/03/24 02:13:44;;;;;;;;;8.75;6.50;;;;;;;;5032222;28;51140;-58
2022/03/24 02:16:38;;;;;;;;;12.00;6.75;;;;;;;;5034388;28;51232;-58
2022/03/24 02:19:24;;;;;;;;;9.50;6.75;;;;;;;;5035460;28;51248;-58
2022/03/24 02:22:13;;;;;;;;;11.75;6.50;;;;;;;;5040294;28;51140;-58
2022/03/24 02:25:23;;;;;;;;;6.50;1.00;;;;;;;;5041430;28;51006;-58
2022/03/24 02:28:11;;;;;;;;;10.50;7.25;;;;;;;;5041317;28;51058;-56
2022/03/24 02:30:56;;;;;;;;;8.25;6.75;;;;;;;;5041560;28;51109;-59
2022/03/24 02:33:41;;;;;;;;;9.50;8.00;;;;;;;;5039887;28;51211;-59
2022/03/24 02:36:27;;;;;;;;;11.50;6.50;;;;;;;;5039432;28;51054;-57
2022/03/24 02:39:17;;;;;;;;;5.50;0.25;;;;;;;;5041186;28;51073;-56
2022/03/24 02:42:05;;;;;;;;;11.25;6.75;;;;;;;;5038875;28;51164;-56
2022/03/24 02:44:53;;;;;;;;;7.50;6.50;;;;;;;;5042023;28;51041;-58
2022/03/24 02:47:40;;;;;;;;;9.00;7.00;;;;;;;;5022873;28;52232;-57
2022/03/24 02:50:24;;;;;;;;;3.00;2.75;;;;;;;;5033387;28;51196;-57
2022/03/24 02:53:11;;;;;;;;;12.25;8.00;;;;;;;;5025155;28;51026;-59
2022/03/24 02:56:07;;;;;;;;;8.50;5.00;;;;;;;;5038356;28;51176;-57
2022/03/24 02:58:53;;;;;;;;;11.00;6.00;;;;;;;;5038701;28;51163;-58
2022/03/24 03:01:50;;;;;;;;;10.75;7.25;;;;;;;;5034655;28;51070;-58
2022/03/24 03:04:56;;;;;;;;;8.50;8.25;;;;;;;;5033181;28;51210;-59
2022/03/24 03:07:41;;;;;;;;;13.75;7.00;;;;;;;;5038019;28;51066;-58
2022/03/24 03:10:26;;;;;;;;;7.75;5.00;;;;;;;;5037827;28;51122;-58
2022/03/24 03:13:11;;;;;;;;;11.25;7.00;;;;;;;;5038592;28;51411;-59
2022/03/24 03:15:57;;;;;;;;;8.50;6.75;;;;;;;;5038218;28;51183;-58
2022/03/24 03:18:44;;;;;;;;;9.75;7.25;;;;;;;;5035876;28;51138;-57
2022/03/24 03:21:29;;;;;;;;;10.75;6.75;;;;;;;;5040287;28;51076;-58
2022/03/24 03:24:17;;;;;;;;;11.25;7.00;;;;;;;;5038268;28;51160;-56
2022/03/24 03:27:04;;;;;;;;;10.75;6.75;;;;;;;;5039497;28;51139;-57
2022/03/24 03:29:50;;;;;;;;;9.50;7.25;;;;;;;;5041046;28;51319;-57
2022/03/24 03:32:35;;;;;;;;;7.75;6.25;;;;;;;;5040295;28;51132;-59
2022/03/24 03:35:20;;;;;;;;;9.25;7.25;;;;;;;;5039644;28;51113;-58
2022/03/24 03:38:08;;;;;;;;;8.00;5.00;;;;;;;;5018887;28;51484;-58
2022/03/24 03:40:52;;;;;;;;;9.50;7.00;;;;;;;;5040770;28;51124;-58
2022/03/24 03:43:39;;;;;;;;;7.75;6.50;;;;;;;;5037040;28;51110;-56
2022/03/24 03:46:25;;;;;;;;;13.75;7.00;;;;;;;;5040542;28;51265;-58
2022/03/24 03:49:10;;;;;;;;;8.75;7.75;;;;;;;;5036013;28;51061;-58
2022/03/24 03:51:56;;;;;;;;;9.00;7.25;;;;;;;;5037540;28;51165;-58
2022/03/24 03:54:43;;;;;;;;;9.50;6.50;;;;;;;;5037588;28;51449;-58
2022/03/24 03:57:31;;;;;;;;;10.75;6.25;;;;;;;;5037945;28;51110;-59
2022/03/24 04:03:24;;;;;;;;;11.50;9.25;;;;;;;;5032177;28;51350;-59
2022/03/24 04:06:11;;;;;;;;;11.75;9.75;;;;;;;;5039368;28;51235;-58
2022/03/24 04:08:56;;;;;;;;;9.50;8.00;;;;;;;;5035293;28;51189;-59
2022/03/24 04:11:42;;;;;;;;;15.00;8.75;;;;;;;;5035369;28;51071;-57
2022/03/24 04:14:26;;;;;;;;;11.25;5.75;;;;;;;;5037708;28;51105;-59
2022/03/24 04:17:27;;;;;;;;;14.75;9.50;;;;;;;;5036801;28;51187;-56
2022/03/24 04:20:13;;;;;;;;;9.25;8.25;;;;;;;;5035521;28;51331;-58
2022/03/24 04:23:01;;;;;;;;;11.00;7.75;;;;;;;;5037254;28;51210;-58
2022/03/24 04:25:46;;;;;;;;;12.75;8.00;;;;;;;;5039221;28;51060;-59
2022/03/24 04:28:30;;;;;;;;;9.50;5.50;;;;;;;;5038398;28;51464;-59
2022/03/24 04:31:16;;;;;;;;;10.50;7.00;;;;;;;;5035272;28;51444;-58
2022/03/24 04:34:02;;;;;;;;;11.25;7.00;;;;;;;;5033334;28;51172;-59
2022/03/24 04:36:58;;;;;;;;;11.75;7.50;;;;;;;;5036126;28;51175;-58
2022/03/24 04:39:51;;;;;;;;;13.75;7.75;;;;;;;;5035044;28;51146;-58
2022/03/24 04:42:47;;;;;;;;;10.50;8.00;;;;;;;;5038282;28;51177;-59
2022/03/24 04:45:36;;;;;;;;;13.00;7.00;;;;;;;;5039907;28;51017;-59
2022/03/24 04:48:21;;;;;;;;;15.75;7.50;;;;;;;;5038195;28;51192;-58
2022/03/24 04:51:17;;;;;;;;;11.50;8.75;;;;;;;;5039540;28;51144;-58
2022/03/24 04:54:02;;;;;;;;;11.25;9.75;;;;;;;;5033616;28;51466;-56
2022/03/24 04:56:48;;;;;;;;;12.00;9.50;;;;;;;;5037911;28;51705;-58
2022/03/24 04:59:33;;;;;;;;;10.50;8.00;;;;;;;;5037528;28;51308;-57
2022/03/24 05:02:18;;;;;;;;;13.50;9.00;;;;;;;;5036674;28;51194;-57
2022/03/24 05:05:07;;;;;;;;;12.25;9.00;;;;;;;;5033900;28;51404;-57
2022/03/24 05:07:53;;;;;;;;;14.75;8.75;;;;;;;;5037544;28;51192;-59
2022/03/24 05:10:52;;;;;;;;;8.00;5.75;;;;;;;;5036866;28;51054;-56
2022/03/24 05:13:45;;;;;;;;;12.50;7.75;;;;;;;;5034106;28;51199;-58
2022/03/24 05:16:30;;;;;;;;;18.50;8.00;;;;;;;;5038435;28;51073;-57
2022/03/24 05:19:15;;;;;;;;;9.25;7.75;;;;;;;;5007122;28;51112;-57
2022/03/24 05:22:01;;;;;;;;;16.75;9.25;;;;;;;;5032624;28;51534;-57
2022/03/24 05:24:45;;;;;;;;;7.25;7.25;;;;;;;;5036744;28;51170;-58
2022/03/24 05:27:41;;;;;;;;;9.50;8.25;;;;;;;;5034723;28;51159;-59
2022/03/24 05:30:27;;;;;;;;;13.00;6.00;;;;;;;;5034465;28;51382;-57
2022/03/24 05:33:13;;;;;;;;;10.75;8.25;;;;;;;;5035936;28;51173;-56
2022/03/24 05:35:59;;;;;;;;;16.50;9.25;;;;;;;;5035575;28;51164;-58
2022/03/24 05:38:44;;;;;;;;;15.25;11.25;;;;;;;;5040648;28;51372;-57
2022/03/24 05:41:32;;;;;;;;;10.75;8.00;;;;;;;;5037451;28;51104;-58
2022/03/24 05:44:19;;;;;;;;;10.75;9.25;;;;;;;;5038539;28;51527;-58
2022/03/24 05:47:08;;;;;;;;;13.25;8.50;;;;;;;;5037144;28;51557;-58
2022/03/24 05:49:53;;;;;;;;;14.75;9.75;;;;;;;;5036337;28;51144;-58
2022/03/24 05:52:42;;;;;;;;;11.25;10.00;;;;;;;;5032023;28;51085;-58
2022/03/24 05:55:27;;;;;;;;;13.75;8.75;;;;;;;;5032406;28;51536;-59
2022/03/24 05:58:13;;;;;;;;;17.00;11.25;;;;;;;;5033977;28;51141;-59
2022/03/24 06:01:05;;;;;;;;;11.50;9.50;;;;;;;;5035592;28;51219;-59
2022/03/24 06:03:51;;;;;;;;;16.75;9.00;;;;;;;;5034907;28;51279;-58
2022/03/24 06:06:42;;;;;;;;;17.50;13.50;;;;;;;;5036764;28;51143;-59
2022/03/24 06:09:29;;;;;;;;;12.50;9.75;;;;;;;;5035794;28;51332;-58
2022/03/24 06:12:27;;;;;;;;;11.50;8.50;;;;;;;;5033443;28;51433;-58
2022/03/24 06:15:15;;;;;;;;;20.50;11.00;;;;;;;;5020496;28;51091;-58
2022/03/24 06:18:04;;;;;;;;;16.25;9.00;;;;;;;;5035234;28;51068;-58
2022/03/24 06:20:49;;;;;;;;;8.50;6.50;;;;;;;;5036610;28;51449;-56
2022/03/24 06:23:38;;;;;;;;;8.75;6.00;;;;;;;;5035492;28;51191;-58
2022/03/24 06:26:23;;;;;;;;;11.75;9.00;;;;;;;;5036353;28;51355;-57
2022/03/24 06:29:19;;;;;;;;;17.00;7.75;;;;;;;;5032902;28;51183;-59
2022/03/24 06:32:05;;;;;;;;;17.25;9.00;;;;;;;;5041169;28;51130;-55
2022/03/24 06:34:51;;;;;;;;;15.50;12.50;;;;;;;;5041770;28;51112;-58
2022/03/24 06:37:41;;;;;;;;;14.50;10.00;;;;;;;;5041890;28;51516;-57
2022/03/24 06:40:25;;;;;;;;;15.75;13.75;;;;;;;;5041824;28;51113;-58
2022/03/24 06:43:20;;;;;;;;;14.00;10.00;;;;;;;;5042135;28;51515;-58
2022/03/24 06:46:06;;;;;;;;;14.00;9.00;;;;;;;;5041469;28;51235;-56
2022/03/24 06:48:51;;;;;;;;;16.00;8.75;;;;;;;;5041858;28;51469;-57
2022/03/24 06:51:36;;;;;;;;;17.75;13.00;;;;;;;;5041766;28;51085;-58
2022/03/24 06:54:21;;;;;;;;;19.00;12.50;;;;;;;;5041187;28;51174;-58
2022/03/24 06:57:08;;;;;;;;;14.75;10.25;;;;;;;;5041803;28;51077;-57
2022/03/24 06:59:52;;;;;;;;;15.50;11.75;;;;;;;;5019528;28;51210;-59
2022/03/24 07:02:39;;;;;;;;;11.75;8.00;;;;;;;;4981343;28;51448;-58
2022/03/24 07:05:24;;;;;;;;;17.00;13.00;;;;;;;;4981574;28;51097;-55
2022/03/24 07:08:11;;;;;;;;;20.75;17.00;;;;;;;;4982234;28;51114;-57
2022/03/24 07:11:13;;;;;;;;;22.25;12.75;;;;;;;;4981405;28;51140;-57
2022/03/24 07:13:57;;;;;;;;;16.00;12.25;;;;;;;;4966940;28;51146;-58
2022/03/24 07:16:49;;;;;;;;;16.50;12.25;;;;;;;;4902254;28;51377;-57
2022/03/24 07:19:33;;;;;;;;;19.75;11.00;;;;;;;;4894700;28;51049;-56
2022/03/24 07:22:19;;;;;;;;;19.75;11.50;;;;;;;;4885700;28;51089;-58
2022/03/24 07:25:08;;;;;;;;;16.50;10.00;;;;;;;;4888886;28;51126;-58
2022/03/24 07:27:56;;;;;;;;;19.00;13.50;;;;;;;;4889271;28;51626;-57
2022/03/24 07:30:43;;;;;;;;;15.75;12.00;;;;;;;;4886803;28;51073;-57
2022/03/24 07:33:29;;;;;;;;;14.50;9.25;;;;;;;;4881403;29;51168;-56
2022/03/24 07:36:13;;;;;;;;;10.50;9.50;;;;;;;;4882721;29;51435;-57
2022/03/24 07:38:58;;;;;;;;;10.00;7.50;;;;;;;;4882104;29;51243;-56
2022/03/24 07:41:44;;;;;;;;;15.25;8.00;;;;;;;;4880582;29;51119;-58
2022/03/24 07:44:30;;;;;;;;;10.75;7.00;;;;;;;;4882351;29;51101;-57
2022/03/24 07:47:15;;;;;;;;;17.50;9.00;;;;;;;;4888135;28;51319;-58
2022/03/24 07:50:01;;;;;;;;;15.00;9.75;;;;;;;;4901461;28;51201;-58
2022/03/24 07:52:46;;;;;;;;;13.00;11.00;;;;;;;;4908583;28;51165;-57
2022/03/24 07:55:41;;;;;;;;;8.25;6.75;;;;;;;;4957623;28;51052;-56
2022/03/24 07:58:27;;;;;;;;;9.50;9.00;;;;;;;;4953686;28;50998;-57
2022/03/24 08:01:12;;;;;;;;;19.25;10.75;;;;;;;;4960160;28;51033;-58
2022/03/24 08:03:59;;;;;;;;;10.00;8.50;;;;;;;;4961313;28;51049;-58
2022/03/24 08:06:44;;;;;;;;;14.25;9.25;;;;;;;;4958134;28;51206;-56
2022/03/24 08:09:31;;;;;;;;;7.50;6.50;;;;;;;;4959723;28;51171;-56
2022/03/24 08:12:15;;;;;;;;;14.25;9.50;;;;;;;;4961483;28;51029;-58
2022/03/24 08:14:59;;;;;;;;;8.75;7.75;;;;;;;;4960308;28;51052;-58
2022/03/24 08:17:48;;;;;;;;;12.50;8.00;;;;;;;;4961135;28;51397;-57
2022/03/24 08:20:38;;;;;;;;;9.50;8.75;;;;;;;;4953386;28;51646;-54
2022/03/24 08:23:23;;;;;;;;;8.00;6.50;;;;;;;;4943161;28;51109;-58
2022/03/24 08:26:19;;;;;;;;;13.00;8.25;;;;;;;;4953359;28;51489;-56
2022/03/24 08:29:05;;;;;;;;;15.25;9.25;;;;;;;;4955001;28;51178;-57
2022/03/24 08:31:55;;;;;;;;;12.50;8.25;;;;;;;;4943609;28;51013;-56
2022/03/24 08:34:40;;;;;;;;;13.50;10.00;;;;;;;;4959481;28;51134;-58
2022/03/24 08:37:26;;;;;;;;;17.00;11.00;;;;;;;;4954651;28;51065;-56
2022/03/24 08:40:13;;;;;;;;;11.50;9.25;;;;;;;;4958661;28;51065;-58
2022/03/24 08:42:58;;;;;;;;;12.50;8.25;;;;;;;;4951996;28;51322;-57
2022/03/24 08:45:42;;;;;;;;;12.00;7.25;;;;;;;;4956701;28;51156;-57
2022/03/24 08:48:52;;;;;;;;;15.50;8.75;;;;;;;;4956245;28;51203;-59
2022/03/24 08:51:43;;;;;;;;;17.00;10.25;;;;;;;;4953156;28;51167;-58
2022/03/24 08:54:28;;;;;;;;;10.50;8.25;;;;;;;;4940444;28;51139;-58
2022/03/24 08:57:16;;;;;;;;;15.25;9.00;;;;;;;;4952190;28;51103;-58
2022/03/24 09:00:07;;;;;;;;;8.25;6.25;;;;;;;;4955022;28;51343;-58
2022/03/24 09:02:53;;;;;;;;;12.25;8.00;;;;;;;;4959266;28;51135;-58
2022/03/24 09:05:39;;;;;;;;;12.50;8.75;;;;;;;;4959024;28;51330;-57
2022/03/24 09:08:35;;;;;;;;;16.00;9.75;;;;;;;;4948534;28;51202;-56
2022/03/24 09:11:20;;;;;;;;;10.00;9.00;;;;;;;;4958748;28;51154;-58
2022/03/24 09:14:23;;;;;;;;;12.75;6.75;;;;;;;;4957409;28;51064;-59
2022/03/24 09:17:10;;;;;;;;;9.75;6.50;;;;;;;;4955622;28;51117;-59
2022/03/24 09:19:55;;;;;;;;;8.25;5.50;;;;;;;;4915852;28;51184;-57
2022/03/24 09:22:41;;;;;;;;;9.50;7.00;;;;;;;;4958628;28;51597;-58
2022/03/24 09:25:25;;;;;;;;;9.75;8.00;;;;;;;;4943314;28;51077;-57
2022/03/24 09:28:16;;;;;;;;;10.50;7.50;;;;;;;;4945278;28;51060;-58
2022/03/24 09:31:02;;;;;;;;;8.25;4.25;;;;;;;;4957915;28;51201;-59
2022/03/24 09:33:49;;;;;;;;;10.50;6.75;;;;;;;;4958980;28;51411;-57
2022/03/24 09:36:46;;;;;;;;;12.75;8.50;;;;;;;;4959160;28;51056;-57
2022/03/24 09:39:31;;;;;;;;;10.50;7.00;;;;;;;;4943689;28;51174;-59
2022/03/24 09:42:18;;;;;;;;;8.75;6.25;;;;;;;;4943550;28;51034;-59
2022/03/24 09:45:19;;;;;;;;;11.25;7.50;;;;;;;;4958039;28;51171;-57
2022/03/24 09:48:12;;;;;;;;;12.75;6.75;;;;;;;;4959502;28;51239;-59
2022/03/24 09:50:57;;;;;;;;;9.25;6.25;;;;;;;;4958451;28;51176;-58
2022/03/24 09:53:54;;;;;;;;;9.50;7.25;;;;;;;;4930897;28;51289;-57
2022/03/24 09:56:39;;;;;;;;;12.75;8.00;;;;;;;;4952286;28;51107;-58
2022/03/24 09:59:32;;;;;;;;;9.50;6.25;;;;;;;;4956505;28;51469;-59
2022/03/24 10:02:17;;;;;;;;;7.00;7.00;;;;;;;;4958193;28;51119;-56
2022/03/24 10:05:07;;;;;;;;;12.50;8.00;;;;;;;;4959169;28;51170;-57
2022/03/24 10:07:52;;;;;;;;;8.25;5.00;;;;;;;;4962925;28;51420;-57
2022/03/24 10:10:43;;;;;;;;;7.50;5.50;;;;;;;;4962538;28;51184;-59
2022/03/24 10:13:44;;;;;;;;;9.25;8.00;;;;;;;;4945119;28;51565;-57
2022/03/24 10:16:41;;;;;;;;;8.00;7.00;;;;;;;;4962401;28;51107;-57
2022/03/24 10:19:46;;;;;;;;;9.50;6.75;;;;;;;;4963144;28;51116;-59
2022/03/24 10:22:40;;;;;;;;;7.75;6.75;;;;;;;;4961770;28;51068;-58
2022/03/24 10:25:27;;;;;;;;;8.75;4.75;;;;;;;;4962781;28;51416;-58
2022/03/24 10:28:21;;;;;;;;;7.25;7.25;;;;;;;;4952289;28;51204;-58
2022/03/24 10:31:07;;;;;;;;;10.50;7.25;;;;;;;;4959208;28;51171;-58
2022/03/24 10:33:52;;;;;;;;;10.75;7.75;;;;;;;;4961084;28;51216;-59
2022/03/24 10:36:43;;;;;;;;;11.00;7.50;;;;;;;;4955228;28;51021;-59
2022/03/24 10:39:29;;;;;;;;;12.50;6.75;;;;;;;;4962601;28;51140;-57
2022/03/24 10:42:16;;;;;;;;;6.50;5.50;;;;;;;;4961869;28;51181;-57
2022/03/24 10:45:20;;;;;;;;;9.50;5.50;;;;;;;;4961507;28;51167;-57
2022/03/24 10:48:05;;;;;;;;;14.75;7.00;;;;;;;;4962372;28;51132;-58
2022/03/24 10:50:56;;;;;;;;;12.75;6.25;;;;;;;;4962575;28;51425;-59
2022/03/24 10:53:54;;;;;;;;;12.00;6.50;;;;;;;;4961218;28;51056;-58
2022/03/24 10:56:41;;;;;;;;;12.25;8.25;;;;;;;;4962674;28;51032;-58
2022/03/24 10:59:27;;;;;;;;;9.75;6.25;;;;;;;;4944296;28;51435;-56
2022/03/24 11:02:22;;;;;;;;;12.75;10.25;;;;;;;;4959084;28;51084;-59
2022/03/24 11:05:12;;;;;;;;;10.50;7.00;;;;;;;;4961769;28;51514;-56
2022/03/24 11:07:58;;;;;;;;;9.00;4.50;;;;;;;;4947613;28;51145;-58
2022/03/24 11:10:47;;;;;;;;;14.50;7.00;;;;;;;;4946655;28;51184;-57
2022/03/24 11:13:52;;;;;;;;;10.00;5.75;;;;;;;;4956693;28;51203;-59
2022/03/24 11:16:57;;;;;;;;;7.50;5.25;;;;;;;;4954402;28;51433;-57
2022/03/24 11:19:51;;;;;;;;;13.50;8.50;;;;;;;;4947410;28;51105;-58
2022/03/24 11:22:51;;;;;;;;;9.00;7.75;;;;;;;;4958975;28;51220;-57
2022/03/24 11:25:57;;;;;;;;;12.50;8.75;;;;;;;;4959856;28;51109;-57
2022/03/24 11:28:41;;;;;;;;;11.50;8.00;;;;;;;;4960399;28;51115;-57
2022/03/24 11:31:28;;;;;;;;;11.50;8.50;;;;;;;;4944077;28;51148;-58
2022/03/24 11:34:28;;;;;;;;;12.00;8.50;;;;;;;;4959521;28;51363;-58
2022/03/24 11:37:14;;;;;;;;;9.00;7.75;;;;;;;;4960653;28;51040;-58
2022/03/24 11:40:17;;;;;;;;;8.00;7.50;;;;;;;;4960801;28;51157;-55
2022/03/24 11:43:16;;;;;;;;;9.00;7.00;;;;;;;;4958389;28;51398;-56
2022/03/24 11:46:09;;;;;;;;;11.25;6.25;;;;;;;;4961849;28;51091;-55
2022/03/24 11:49:14;;;;;;;;;11.25;10.75;;;;;;;;4929555;28;51269;-57
2022/03/24 11:52:07;;;;;;;;;12.25;10.50;;;;;;;;4959912;28;51484;-57
2022/03/24 11:54:53;;;;;;;;;16.00;11.00;;;;;;;;4953857;28;51102;-57
2022/03/24 11:58:09;;;;;;;;;11.00;8.25;;;;;;;;4960408;28;51416;-58
2022/03/24 12:00:53;;;;;;;;;8.50;7.50;;;;;;;;4952057;28;51146;-56
2022/03/24 12:03:40;;;;;;;;;10.25;6.25;;;;;;;;4959760;28;51423;-58
2022/03/24 12:06:48;;;;;;;;;10.75;6.50;;;;;;;;4961230;28;51213;-57
2022/03/24 12:09:52;;;;;;;;;11.25;7.00;;;;;;;;4960886;28;51356;-58
2022/03/24 12:13:01;;;;;;;;;13.75;9.25;;;;;;;;4960701;28;51091;-57
2022/03/24 12:16:05;;;;;;;;;11.50;8.50;;;;;;;;4960519;28;51103;-56
2022/03/24 12:18:50;;;;;;;;;12.25;8.25;;;;;;;;4960521;28;51568;-59
2022/03/24 12:21:36;;;;;;;;;11.75;8.50;;;;;;;;4959687;28;51156;-59
2022/03/24 12:24:22;;;;;;;;;12.00;8.00;;;;;;;;4959023;28;51167;-58
2022/03/24 12:27:07;;;;;;;;;9.50;8.25;;;;;;;;4960316;28;51137;-58
2022/03/24 12:30:20;;;;;;;;;8.75;7.75;;;;;;;;4958253;28;50929;-58
2022/03/24 12:33:09;;;;;;;;;12.00;9.00;;;;;;;;4959252;28;51193;-57
2022/03/24 12:35:55;;;;;;;;;12.75;9.50;;;;;;;;4943220;28;51613;-58
2022/03/24 12:38:47;;;;;;;;;13.00;10.00;;;;;;;;4978162;28;51144;-58
2022/03/24 12:41:32;;;;;;;;;14.00;9.50;;;;;;;;4969389;28;51149;-58
2022/03/24 12:44:16;;;;;;;;;6.75;3.75;;;;;;;;4978114;28;51195;-57
2022/03/24 12:47:01;;;;;;;;;9.25;7.00;;;;;;;;4960613;28;51280;-57
2022/03/24 12:49:45;;;;;;;;;13.75;7.00;;;;;;;;4987859;28;51443;-58
2022/03/24 12:52:48;;;;;;;;;10.50;7.25;;;;;;;;4999261;28;51135;-57
2022/03/24 12:55:33;;;;;;;;;8.25;4.50;;;;;;;;4978140;28;51477;-58
2022/03/24 12:58:19;;;;;;;;;7.50;7.25;;;;;;;;4999357;28;51107;-58
2022/03/24 13:01:06;;;;;;;;;9.00;8.50;;;;;;;;4983815;28;51386;-59
2022/03/24 13:04:00;;;;;;;;;8.00;6.00;;;;;;;;4994861;28;51111;-59
2022/03/24 13:06:46;;;;;;;;;10.00;5.75;;;;;;;;4983064;28;51119;-58
2022/03/24 13:09:36;;;;;;;;;11.75;6.50;;;;;;;;4975344;28;51124;-58
2022/03/24 13:12:29;;;;;;;;;14.75;9.75;;;;;;;;4983820;28;51221;-58
2022/03/24 13:15:19;;;;;;;;;8.25;6.50;;;;;;;;4993132;28;51215;-57
2022/03/24 13:18:26;;;;;;;;;8.25;6.00;;;;;;;;4979130;28;51168;-59
2022/03/24 13:21:24;;;;;;;;;13.50;6.75;;;;;;;;4965653;28;51518;-59
2022/03/24 13:24:18;;;;;;;;;8.75;5.50;;;;;;;;4994250;28;51596;-59
2022/03/24 13:27:09;;;;;;;;;8.00;4.50;;;;;;;;4980811;28;51405;-57
2022/03/24 13:29:54;;;;;;;;;5.00;5.00;;;;;;;;4978250;28;51148;-59
2022/03/24 13:32:41;;;;;;;;;11.50;6.50;;;;;;;;4964823;28;51027;-57
2022/03/24 13:35:26;;;;;;;;;7.25;7.00;;;;;;;;4983580;28;51166;-59
2022/03/24 13:38:21;;;;;;;;;5.75;5.50;;;;;;;;4998754;28;51115;-57
2022/03/24 13:41:08;;;;;;;;;9.00;7.75;;;;;;;;4981026;28;51049;-57
2022/03/24 13:43:54;;;;;;;;;7.50;6.50;;;;;;;;4970517;28;51231;-58
2022/03/24 13:46:39;;;;;;;;;12.50;5.00;;;;;;;;4969429;28;51360;-57
2022/03/24 13:49:26;;;;;;;;;8.00;4.75;;;;;;;;4978001;28;51413;-57
2022/03/24 13:52:13;;;;;;;;;6.00;4.25;;;;;;;;4978224;28;51459;-57
2022/03/24 13:55:16;;;;;;;;;6.25;4.25;;;;;;;;4978934;28;51091;-57
2022/03/24 13:58:15;;;;;;;;;6.00;5.25;;;;;;;;4972527;28;51128;-58
2022/03/24 14:01:11;;;;;;;;;7.25;6.00;;;;;;;;4988099;28;51125;-57
2022/03/24 14:03:57;;;;;;;;;5.75;4.00;;;;;;;;4979030;28;51395;-58
2022/03/24 14:07:01;;;;;;;;;6.50;5.00;;;;;;;;4988554;28;51204;-58
2022/03/24 14:09:58;;;;;;;;;7.50;4.00;;;;;;;;4978315;28;51069;-60
2022/03/24 14:12:54;;;;;;;;;8.25;6.50;;;;;;;;4976406;28;51164;-58
2022/03/24 14:15:40;;;;;;;;;7.75;7.00;;;;;;;;4978736;28;51113;-58
2022/03/24 14:18:24;;;;;;;;;10.25;5.50;;;;;;;;4977531;28;51466;-58
2022/03/24 14:21:16;;;;;;;;;13.25;9.25;;;;;;;;4978631;28;51044;-58
2022/03/24 14:24:02;;;;;;;;;9.50;7.00;;;;;;;;4988252;28;51036;-58
2022/03/24 14:27:06;;;;;;;;;6.00;5.75;;;;;;;;4998387;28;51105;-60
2022/03/24 14:30:19;;;;;;;;;9.00;5.00;;;;;;;;4997955;28;51110;-57
2022/03/24 14:33:04;;;;;;;;;14.50;8.25;;;;;;;;4982085;28;51091;-59
2022/03/24 14:35:57;;;;;;;;;8.00;6.50;;;;;;;;4983389;28;51436;-57
2022/03/24 14:39:00;;;;;;;;;9.75;7.50;;;;;;;;4975932;28;51139;-59
2022/03/24 14:41:47;;;;;;;;;6.75;6.25;;;;;;;;4959459;28;51484;-58
2022/03/24 14:44:39;;;;;;;;;7.75;5.75;;;;;;;;4975166;28;51207;-57
2022/03/24 14:47:49;;;;;;;;;12.00;9.50;;;;;;;;4975978;28;51156;-58
2022/03/24 14:50:35;;;;;;;;;7.50;6.25;;;;;;;;4976284;28;51306;-59
2022/03/24 14:53:20;;;;;;;;;7.50;5.00;;;;;;;;4989833;28;50981;-57
2022/03/24 14:56:05;;;;;;;;;12.75;9.00;;;;;;;;4982422;28;51070;-59
2022/03/24 14:58:54;;;;;;;;;13.25;6.00;;;;;;;;4979980;28;51154;-59
2022/03/24 15:01:40;;;;;;;;;9.50;6.00;;;;;;;;4973110;28;51268;-56
2022/03/24 15:04:26;;;;;;;;;14.00;9.00;;;;;;;;4980587;28;51048;-59
2022/03/24 15:07:11;;;;;;;;;8.75;8.75;;;;;;;;4981612;28;51192;-58
2022/03/24 15:09:57;;;;;;;;;14.75;10.00;;;;;;;;4981550;28;51088;-59
2022/03/24 15:12:42;;;;;;;;;10.50;7.50;;;;;;;;4980287;28;51180;-59
2022/03/24 15:18:35;;;;;;;;;9.50;6.25;;;;;;;;4981720;28;51520;-57
2022/03/24 15:21:24;;;;;;;;;8.25;7.00;;;;;;;;4980929;28;51171;-59
2022/03/24 15:24:10;;;;;;;;;9.50;7.25;;;;;;;;4980230;28;51101;-58
2022/03/24 15:27:15;;;;;;;;;10.00;7.25;;;;;;;;4981294;28;51123;-57
2022/03/24 15:30:00;;;;;;;;;13.00;7.50;;;;;;;;4981138;28;51527;-58
2022/03/24 15:32:46;;;;;;;;;15.00;9.75;;;;;;;;4980324;28;51104;-58
2022/03/24 15:35:30;;;;;;;;;8.25;7.25;;;;;;;;4980781;28;51440;-59
2022/03/24 15:38:15;;;;;;;;;9.25;8.00;;;;;;;;5000549;28;51214;-59
2022/03/24 15:41:00;;;;;;;;;9.75;7.25;;;;;;;;5000340;28;51060;-58
2022/03/24 15:43:46;;;;;;;;;9.25;6.00;;;;;;;;4996723;28;51092;-60
2022/03/24 15:46:34;;;;;;;;;11.50;8.00;;;;;;;;4985142;28;51124;-58
2022/03/24 15:49:20;;;;;;;;;13.00;8.25;;;;;;;;5000418;28;51166;-57
2022/03/24 15:52:06;;;;;;;;;10.75;6.75;;;;;;;;4998644;28;51231;-60
2022/03/24 15:54:51;;;;;;;;;12.25;11.25;;;;;;;;4980634;28;51484;-59
2022/03/24 15:57:36;;;;;;;;;10.50;8.25;;;;;;;;4980287;28;51088;-55
2022/03/24 16:00:22;;;;;;;;;13.00;11.00;;;;;;;;4980333;28;51748;-58
2022/03/24 16:03:09;;;;;;;;;15.50;11.00;;;;;;;;4978655;28;51546;-56
2022/03/24 16:05:53;;;;;;;;;18.00;13.00;;;;;;;;4980091;28;50977;-57
2022/03/24 16:08:41;;;;;;;;;15.75;11.25;;;;;;;;4978640;28;51112;-59
2022/03/24 16:11:26;;;;;;;;;11.25;8.50;;;;;;;;4980510;28;51076;-56
2022/03/24 16:14:11;;;;;;;;;10.50;8.75;;;;;;;;4980009;28;51096;-59
2022/03/24 16:16:56;;;;;;;;;8.75;6.25;;;;;;;;4980611;28;51077;-59
2022/03/24 16:19:41;;;;;;;;;9.50;7.00;;;;;;;;4967471;28;51357;-54
2022/03/24 16:22:26;;;;;;;;;9.50;6.75;;;;;;;;4964011;28;51215;-58
2022/03/24 16:25:13;;;;;;;;;14.25;8.50;;;;;;;;4977977;28;51530;-58
2022/03/24 16:27:58;;;;;;;;;10.25;8.75;;;;;;;;4963154;28;51104;-58
2022/03/24 16:30:44;;;;;;;;;8.50;6.00;;;;;;;;4981912;28;50988;-58
2022/03/24 16:33:30;;;;;;;;;9.25;7.25;;;;;;;;4966204;28;51081;-58
2022/03/24 16:36:16;;;;;;;;;7.50;5.25;;;;;;;;4979322;28;51536;-57
2022/03/24 16:39:02;;;;;;;;;14.50;8.75;;;;;;;;4964793;28;51201;-59
2022/03/24 16:41:59;;;;;;;;;8.25;7.00;;;;;;;;4978218;28;51513;-59
2022/03/24 16:44:48;;;;;;;;;13.50;9.00;;;;;;;;4979307;28;51005;-58
2022/03/24 16:47:44;;;;;;;;;5.25;3.00;;;;;;;;4979644;28;51168;-59
2022/03/24 16:50:30;;;;;;;;;15.50;8.75;;;;;;;;4979439;28;51350;-58